createdAt,value
2018-09-01T00:00:09.398Z,65.36
2018-09-01T00:00:35.535Z,65.56
2018-09-01T00:01:01.671Z,65.56
2018-09-01T00:01:27.830Z,65.56
2018-09-01T00:01:53.975Z,65.46
2018-09-01T00:02:20.151Z,65.65
2018-09-01T00:02:46.513Z,65.75
2018-09-01T00:03:12.672Z,66.03
2018-09-01T00:03:38.980Z,66.23
2018-09-01T00:04:05.044Z,66.03
2018-09-01T00:04:31.195Z,66.33
2018-09-01T00:04:57.337Z,66.23
2018-09-01T00:05:23.470Z,66.13
2018-09-01T00:05:49.628Z,66.23
2018-09-01T00:06:16.103Z,66.03
2018-09-01T00:06:42.276Z,66.03
2018-09-01T00:07:08.445Z,65.75
2018-09-01T00:07:34.596Z,66.13
2018-09-01T00:08:00.744Z,66.13
2018-09-01T00:08:26.886Z,66.13
2018-09-01T00:08:53.064Z,65.84
2018-09-01T00:09:19.195Z,66.13
2018-09-01T00:09:45.324Z,65.84
2018-09-01T00:10:11.709Z,65.75
2018-09-01T00:10:38.238Z,66.13
2018-09-01T00:11:04.475Z,66.71
2018-09-01T00:11:30.535Z,66.71
2018-09-01T00:11:56.663Z,66.13
2018-09-01T00:12:22.805Z,65.94
2018-09-01T00:12:48.981Z,65.94
2018-09-01T00:13:15.111Z,66.13
2018-09-01T00:13:41.244Z,65.94
2018-09-01T00:14:07.653Z,65.94
2018-09-01T00:14:33.805Z,66.61
2018-09-01T00:14:59.965Z,66.23
2018-09-01T00:15:26.093Z,65.84
2018-09-01T00:15:52.233Z,66.52
2018-09-01T00:16:18.363Z,66.33
2018-09-01T00:16:44.502Z,66.52
2018-09-01T00:17:10.636Z,66.33
2018-09-01T00:17:36.860Z,66.33
2018-09-01T00:18:03.023Z,66.03
2018-09-01T00:18:29.330Z,66.03
2018-09-01T00:18:55.413Z,66.13
2018-09-01T00:19:21.569Z,66.71
2018-09-01T00:19:47.701Z,66.52
2018-09-01T00:20:13.833Z,66.52
2018-09-01T00:20:39.968Z,66.42
2018-09-01T00:21:06.419Z,66.52
2018-09-01T00:21:32.566Z,66.13
2018-09-01T00:21:58.695Z,66.52
2018-09-01T00:22:24.917Z,65.94
2018-09-01T00:22:51.027Z,66.42
2018-09-01T00:23:17.217Z,66.23
2018-09-01T00:23:43.405Z,66.52
2018-09-01T00:24:09.552Z,66.52
2018-09-01T00:24:36.375Z,66.71
2018-09-01T00:25:02.474Z,66.8
2018-09-01T00:25:28.612Z,66.71
2018-09-01T00:25:54.742Z,66.61
2018-09-01T00:26:21.000Z,66.33
2018-09-01T00:26:47.144Z,66.33
2018-09-01T00:27:13.278Z,66.23
2018-09-01T00:27:39.543Z,66.39
2018-09-01T00:28:05.662Z,66.49
2018-09-01T00:28:31.822Z,66.86
2018-09-01T00:28:57.958Z,66.96
2018-09-01T00:29:24.093Z,66.86
2018-09-01T00:29:50.240Z,67.06
2018-09-01T00:30:16.372Z,67.16
2018-09-01T00:30:42.558Z,67.16
2018-09-01T00:31:08.805Z,67.16
2018-09-01T00:31:34.963Z,66.67
2018-09-01T00:32:01.217Z,66.77
2018-09-01T00:32:27.325Z,67.06
2018-09-01T00:32:53.459Z,66.96
2018-09-01T00:33:19.596Z,67.16
2018-09-01T00:33:45.717Z,67.06
2018-09-01T00:34:11.879Z,66.96
2018-09-01T00:34:38.011Z,66.96
2018-09-01T00:35:04.205Z,66.96
2018-09-01T00:35:31.542Z,67.35
2018-09-01T00:35:57.683Z,67.35
2018-09-01T00:36:23.815Z,66.96
2018-09-01T00:36:49.948Z,66.96
2018-09-01T00:37:16.098Z,66.86
2018-09-01T00:37:42.238Z,67.16
2018-09-01T00:38:08.372Z,67.06
2018-09-01T00:38:35.339Z,66.96
2018-09-01T00:39:01.485Z,67.25
2018-09-01T00:39:27.584Z,66.77
2018-09-01T00:39:53.724Z,67.06
2018-09-01T00:40:19.861Z,66.96
2018-09-01T00:40:45.999Z,66.86
2018-09-01T00:41:12.135Z,67.06
2018-09-01T00:41:38.292Z,67.54
2018-09-01T00:42:04.438Z,67.54
2018-09-01T00:42:30.681Z,67.63
2018-09-01T00:42:57.134Z,67.54
2018-09-01T00:43:23.268Z,67.35
2018-09-01T00:43:49.394Z,67.44
2018-09-01T00:44:15.551Z,67.35
2018-09-01T00:44:41.701Z,67.54
2018-09-01T00:45:07.872Z,67.35
2018-09-01T00:45:34.386Z,67.54
2018-09-01T00:46:00.787Z,67.44
2018-09-01T00:46:26.853Z,67.44
2018-09-01T00:46:52.982Z,67.54
2018-09-01T00:47:19.118Z,67.44
2018-09-01T00:47:45.432Z,67.6
2018-09-01T00:48:11.787Z,67.63
2018-09-01T00:48:37.924Z,67.63
2018-09-01T00:49:04.066Z,67.63
2018-09-01T00:49:30.355Z,67.73
2018-09-01T00:49:56.493Z,67.54
2018-09-01T00:50:22.659Z,67.6
2018-09-01T00:50:48.813Z,67.54
2018-09-01T00:51:14.943Z,67.63
2018-09-01T00:51:41.076Z,67.73
2018-09-01T00:52:07.215Z,67.83
2018-09-01T00:52:33.355Z,68.02
2018-09-01T00:52:59.491Z,68.12
2018-09-01T00:53:25.645Z,68.21
2018-09-01T00:53:51.795Z,68.18
2018-09-01T00:54:17.929Z,68.08
2018-09-01T00:54:44.065Z,67.79
2018-09-01T00:55:10.220Z,68.4
2018-09-01T00:55:36.381Z,68.4
2018-09-01T00:56:02.518Z,68.66
2018-09-01T00:56:28.648Z,68.18
2018-09-01T00:56:54.776Z,68.4
2018-09-01T00:57:20.908Z,68.27
2018-09-01T00:57:47.036Z,68.46
2018-09-01T00:58:13.174Z,68.46
2018-09-01T00:58:39.332Z,68.56
2018-09-01T00:59:05.473Z,68.56
2018-09-01T00:59:31.608Z,68.37
2018-09-01T00:59:57.743Z,68.18
2018-09-01T01:00:23.878Z,68.46
2018-09-01T01:00:50.008Z,68.46
2018-09-01T01:01:16.160Z,68.46
2018-09-01T01:01:42.301Z,68.66
2018-09-01T01:02:08.458Z,68.95
2018-09-01T01:02:34.590Z,68.85
2018-09-01T01:03:00.764Z,68.85
2018-09-01T01:03:26.920Z,68.56
2018-09-01T01:03:53.058Z,68.46
2018-09-01T01:04:19.188Z,68.95
2018-09-01T01:04:45.326Z,68.66
2018-09-01T01:05:11.455Z,68.37
2018-09-01T01:05:37.586Z,68.85
2018-09-01T01:06:03.720Z,69.04
2018-09-01T01:06:29.855Z,68.95
2018-09-01T01:06:55.990Z,69.13
2018-09-01T01:07:22.141Z,69.13
2018-09-01T01:07:48.277Z,69.04
2018-09-01T01:08:14.419Z,68.95
2018-09-01T01:08:40.552Z,69.04
2018-09-01T01:09:06.680Z,69.23
2018-09-01T01:09:32.839Z,69.13
2018-09-01T01:09:58.971Z,69.04
2018-09-01T01:10:25.108Z,68.95
2018-09-01T01:10:51.241Z,68.75
2018-09-01T01:11:17.400Z,69.42
2018-09-01T01:11:43.556Z,69.04
2018-09-01T01:12:09.688Z,68.75
2018-09-01T01:12:35.825Z,68.95
2018-09-01T01:13:01.963Z,68.95
2018-09-01T01:13:28.114Z,68.85
2018-09-01T01:13:54.246Z,68.85
2018-09-01T01:14:20.406Z,68.95
2018-09-01T01:14:46.535Z,68.95
2018-09-01T01:15:12.671Z,68.75
2018-09-01T01:15:38.802Z,68.95
2018-09-01T01:16:04.962Z,68.75
2018-09-01T01:16:31.113Z,68.95
2018-09-01T01:16:57.278Z,68.85
2018-09-01T01:17:23.403Z,68.75
2018-09-01T01:17:49.535Z,69.23
2018-09-01T01:18:15.691Z,68.85
2018-09-01T01:18:41.827Z,68.75
2018-09-01T01:19:07.958Z,68.95
2018-09-01T01:19:34.092Z,68.75
2018-09-01T01:20:00.275Z,68.66
2018-09-01T01:20:26.398Z,69.52
2018-09-01T01:20:52.537Z,69.04
2018-09-01T01:21:18.669Z,69.23
2018-09-01T01:21:44.844Z,69.23
2018-09-01T01:22:10.970Z,69.23
2018-09-01T01:22:37.129Z,69.23
2018-09-01T01:23:03.266Z,69.42
2018-09-01T01:23:29.427Z,69.33
2018-09-01T01:23:55.562Z,69.33
2018-09-01T01:24:21.714Z,69.23
2018-09-01T01:24:47.843Z,69.13
2018-09-01T01:25:13.996Z,69.23
2018-09-01T01:25:40.137Z,69.52
2018-09-01T01:26:06.268Z,69.48
2018-09-01T01:26:32.400Z,69.04
2018-09-01T01:26:58.558Z,69.33
2018-09-01T01:27:24.692Z,69.52
2018-09-01T01:27:50.826Z,69.33
2018-09-01T01:28:16.982Z,69.81
2018-09-01T01:28:43.117Z,69.58
2018-09-01T01:29:09.252Z,69.39
2018-09-01T01:29:35.377Z,69.68
2018-09-01T01:30:01.510Z,69.71
2018-09-01T01:30:27.646Z,69.58
2018-09-01T01:30:53.779Z,69.77
2018-09-01T01:31:19.913Z,69.87
2018-09-01T01:31:46.038Z,69.48
2018-09-01T01:32:12.173Z,69.48
2018-09-01T01:32:38.316Z,69.48
2018-09-01T01:33:04.476Z,69.68
2018-09-01T01:33:30.608Z,69.58
2018-09-01T01:33:56.746Z,69.58
2018-09-01T01:34:22.882Z,69.58
2018-09-01T01:34:49.009Z,69.87
2018-09-01T01:35:15.150Z,69.77
2018-09-01T01:35:41.307Z,69.87
2018-09-01T01:36:07.458Z,69.96
2018-09-01T01:36:33.593Z,69.77
2018-09-01T01:36:59.732Z,69.68
2018-09-01T01:37:25.886Z,69.68
2018-09-01T01:37:52.013Z,69.96
2018-09-01T01:38:18.151Z,70.35
2018-09-01T01:38:44.282Z,70.35
2018-09-01T01:39:10.413Z,69.77
2018-09-01T01:39:36.542Z,70.06
2018-09-01T01:40:02.680Z,69.96
2018-09-01T01:40:28.813Z,70.25
2018-09-01T01:40:54.947Z,70.25
2018-09-01T01:41:21.078Z,70.06
2018-09-01T01:41:47.243Z,69.96
2018-09-01T01:42:13.370Z,70.15
2018-09-01T01:42:39.535Z,69.96
2018-09-01T01:43:05.688Z,69.77
2018-09-01T01:43:31.839Z,70.15
2018-09-01T01:43:57.973Z,70.06
2018-09-01T01:44:24.108Z,69.87
2018-09-01T01:44:50.239Z,69.77
2018-09-01T01:45:16.403Z,70.06
2018-09-01T01:45:42.536Z,70.06
2018-09-01T01:46:08.672Z,69.77
2018-09-01T01:46:34.833Z,69.87
2018-09-01T01:47:00.990Z,69.96
2018-09-01T01:47:27.123Z,69.96
2018-09-01T01:47:53.282Z,69.96
2018-09-01T01:48:19.427Z,70.25
2018-09-01T01:48:45.553Z,70.25
2018-09-01T01:49:11.685Z,70.83
2018-09-01T01:49:37.926Z,70.54
2018-09-01T01:50:03.994Z,70.54
2018-09-01T01:50:30.131Z,70.54
2018-09-01T01:50:56.262Z,70.54
2018-09-01T01:51:22.439Z,70.54
2018-09-01T01:51:48.576Z,70.35
2018-09-01T01:52:14.707Z,70.64
2018-09-01T01:52:40.872Z,70.44
2018-09-01T01:53:07.003Z,70.35
2018-09-01T01:53:33.135Z,70.54
2018-09-01T01:53:59.293Z,70.54
2018-09-01T01:54:25.466Z,70.44
2018-09-01T01:54:51.582Z,70.64
2018-09-01T01:55:17.726Z,70.64
2018-09-01T01:55:43.860Z,70.54
2018-09-01T01:56:09.992Z,70.64
2018-09-01T01:56:36.150Z,70.92
2018-09-01T01:57:02.280Z,71.11
2018-09-01T01:57:28.417Z,70.64
2018-09-01T01:57:54.557Z,70.64
2018-09-01T01:58:20.692Z,70.73
2018-09-01T01:58:46.848Z,70.83
2018-09-01T01:59:12.976Z,70.54
2018-09-01T01:59:39.130Z,70.73
2018-09-01T02:00:05.262Z,70.73
2018-09-01T02:00:31.393Z,70.83
2018-09-01T02:00:57.531Z,70.64
2018-09-01T02:01:23.661Z,70.54
2018-09-01T02:01:49.800Z,70.54
2018-09-01T02:02:15.941Z,70.83
2018-09-01T02:02:42.072Z,70.54
2018-09-01T02:03:08.219Z,70.35
2018-09-01T02:03:34.352Z,70.54
2018-09-01T02:04:00.489Z,70.44
2018-09-01T02:04:26.625Z,70.73
2018-09-01T02:04:52.754Z,70.54
2018-09-01T02:05:18.908Z,70.54
2018-09-01T02:05:45.047Z,70.64
2018-09-01T02:06:11.179Z,70.83
2018-09-01T02:06:37.331Z,71.21
2018-09-01T02:07:03.490Z,71.21
2018-09-01T02:07:29.629Z,71.21
2018-09-01T02:07:55.783Z,70.98
2018-09-01T02:08:21.998Z,71.02
2018-09-01T02:08:48.095Z,71.02
2018-09-01T02:09:14.263Z,71.02
2018-09-01T02:09:40.395Z,70.83
2018-09-01T02:10:06.533Z,70.5
2018-09-01T02:10:32.666Z,71.02
2018-09-01T02:10:58.806Z,70.98
2018-09-01T02:11:24.937Z,70.79
2018-09-01T02:11:51.076Z,70.98
2018-09-01T02:12:17.202Z,71.02
2018-09-01T02:12:43.362Z,70.5
2018-09-01T02:13:09.495Z,70.98
2018-09-01T02:13:35.634Z,71.46
2018-09-01T02:14:01.806Z,71.17
2018-09-01T02:14:27.917Z,70.89
2018-09-01T02:14:54.052Z,71.46
2018-09-01T02:15:20.181Z,71.59
2018-09-01T02:15:46.314Z,71.56
2018-09-01T02:16:12.477Z,70.98
2018-09-01T02:16:38.635Z,70.98
2018-09-01T02:17:04.776Z,71.56
2018-09-01T02:17:30.906Z,71.75
2018-09-01T02:17:57.063Z,71.56
2018-09-01T02:18:23.196Z,71.56
2018-09-01T02:18:49.334Z,71.66
2018-09-01T02:19:15.462Z,71.75
2018-09-01T02:19:41.601Z,71.46
2018-09-01T02:20:07.745Z,71.37
2018-09-01T02:20:33.893Z,71.37
2018-09-01T02:21:00.008Z,71.37
2018-09-01T02:21:26.164Z,71.46
2018-09-01T02:21:52.295Z,71.56
2018-09-01T02:22:18.435Z,71.56
2018-09-01T02:22:44.588Z,71.56
2018-09-01T02:23:10.720Z,71.84
2018-09-01T02:23:36.882Z,71.94
2018-09-01T02:24:03.048Z,71.75
2018-09-01T02:24:29.216Z,71.66
2018-09-01T02:24:55.347Z,71.66
2018-09-01T02:25:21.481Z,71.56
2018-09-01T02:25:47.617Z,71.17
2018-09-01T02:26:13.747Z,71.94
2018-09-01T02:26:39.886Z,71.75
2018-09-01T02:27:06.040Z,71.46
2018-09-01T02:27:32.176Z,71.84
2018-09-01T02:27:58.310Z,71.84
2018-09-01T02:28:24.448Z,72.42
2018-09-01T02:28:50.602Z,71.94
2018-09-01T02:29:16.780Z,71.84
2018-09-01T02:29:42.913Z,72.13
2018-09-01T02:30:09.075Z,71.94
2018-09-01T02:30:35.251Z,71.84
2018-09-01T02:31:01.408Z,72.71
2018-09-01T02:31:27.614Z,71.66
2018-09-01T02:31:53.771Z,72.32
2018-09-01T02:32:19.903Z,71.75
2018-09-01T02:32:46.034Z,71.66
2018-09-01T02:33:12.203Z,72.71
2018-09-01T02:33:38.381Z,72.03
2018-09-01T02:34:04.533Z,72.23
2018-09-01T02:34:30.675Z,71.75
2018-09-01T02:34:56.823Z,72.52
2018-09-01T02:35:22.956Z,72.13
2018-09-01T02:35:49.114Z,71.75
2018-09-01T02:36:15.269Z,72.52
2018-09-01T02:36:41.433Z,72.71
2018-09-01T02:37:07.587Z,72.03
2018-09-01T02:37:33.724Z,71.75
2018-09-01T02:37:59.858Z,72.03
2018-09-01T02:38:25.995Z,72.03
2018-09-01T02:38:52.147Z,72.32
2018-09-01T02:39:18.326Z,71.75
2018-09-01T02:39:44.462Z,71.84
2018-09-01T02:40:10.590Z,71.66
2018-09-01T02:40:36.784Z,71.75
2018-09-01T02:41:02.913Z,72.71
2018-09-01T02:41:29.068Z,72.52
2018-09-01T02:41:55.197Z,72.8
2018-09-01T02:42:21.331Z,72.61
2018-09-01T02:42:47.489Z,72.71
2018-09-01T02:43:13.678Z,72.42
2018-09-01T02:43:39.832Z,72.32
2018-09-01T02:44:06.011Z,72.23
2018-09-01T02:44:32.140Z,72.13
2018-09-01T02:44:58.273Z,72.32
2018-09-01T02:45:24.409Z,72.23
2018-09-01T02:45:50.562Z,72.42
2018-09-01T02:46:16.691Z,73.19
2018-09-01T02:46:42.840Z,73.09
2018-09-01T02:47:08.975Z,72.86
2018-09-01T02:47:35.110Z,72.67
2018-09-01T02:48:01.268Z,72.61
2018-09-01T02:48:27.405Z,72.77
2018-09-01T02:48:53.567Z,72.77
2018-09-01T02:49:19.743Z,72.48
2018-09-01T02:49:45.880Z,72.58
2018-09-01T02:50:12.040Z,72.67
2018-09-01T02:50:38.203Z,72.86
2018-09-01T02:51:04.313Z,72.67
2018-09-01T02:51:30.442Z,72.77
2018-09-01T02:51:56.597Z,72.58
2018-09-01T02:52:22.753Z,72.77
2018-09-01T02:52:48.894Z,72.77
2018-09-01T02:53:15.027Z,72.77
2018-09-01T02:53:41.165Z,72.86
2018-09-01T02:54:07.345Z,72.86
2018-09-01T02:54:33.485Z,73.05
2018-09-01T02:54:59.617Z,73.05
2018-09-01T02:55:25.748Z,73.24
2018-09-01T02:55:51.882Z,73.15
2018-09-01T02:56:18.037Z,73.24
2018-09-01T02:56:44.219Z,73.15
2018-09-01T02:57:10.376Z,73.05
2018-09-01T02:57:36.529Z,73.05
2018-09-01T02:58:02.687Z,72.77
2018-09-01T02:58:28.821Z,72.96
2018-09-01T02:58:54.990Z,73.24
2018-09-01T02:59:21.140Z,73.24
2018-09-01T02:59:47.297Z,73.24
2018-09-01T03:00:13.433Z,73.44
2018-09-01T03:00:39.561Z,73.34
2018-09-01T03:01:05.722Z,73.44
2018-09-01T03:01:31.861Z,72.96
2018-09-01T03:01:57.989Z,73.44
2018-09-01T03:02:24.148Z,73.15
2018-09-01T03:02:50.282Z,73.24
2018-09-01T03:03:16.405Z,73.24
2018-09-01T03:03:42.537Z,73.24
2018-09-01T03:04:08.697Z,73.05
2018-09-01T03:04:34.848Z,72.86
2018-09-01T03:05:01.010Z,72.96
2018-09-01T03:05:27.138Z,73.24
2018-09-01T03:05:53.298Z,73.44
2018-09-01T03:06:19.426Z,73.44
2018-09-01T03:06:45.552Z,73.54
2018-09-01T03:07:11.687Z,73.24
2018-09-01T03:07:37.847Z,73.24
2018-09-01T03:08:03.977Z,73.63
2018-09-01T03:08:30.130Z,73.34
2018-09-01T03:08:56.267Z,73.34
2018-09-01T03:09:22.415Z,73.44
2018-09-01T03:09:48.550Z,73.63
2018-09-01T03:10:14.712Z,73.44
2018-09-01T03:10:40.867Z,73.34
2018-09-01T03:11:07.001Z,73.54
2018-09-01T03:11:33.149Z,73.34
2018-09-01T03:11:59.288Z,73.44
2018-09-01T03:12:25.420Z,73.34
2018-09-01T03:12:51.563Z,73.34
2018-09-01T03:13:17.713Z,73.34
2018-09-01T03:13:43.850Z,73.44
2018-09-01T03:14:09.986Z,73.34
2018-09-01T03:14:36.140Z,74.11
2018-09-01T03:15:02.289Z,74.3
2018-09-01T03:15:28.404Z,74.3
2018-09-01T03:15:54.537Z,73.54
2018-09-01T03:16:20.678Z,73.15
2018-09-01T03:16:46.807Z,73.24
2018-09-01T03:17:12.940Z,74.4
2018-09-01T03:17:39.075Z,74.2
2018-09-01T03:18:05.233Z,74.01
2018-09-01T03:18:31.365Z,73.82
2018-09-01T03:18:57.500Z,74.2
2018-09-01T03:19:23.661Z,74.11
2018-09-01T03:19:49.803Z,74.11
2018-09-01T03:20:15.977Z,74.01
2018-09-01T03:20:42.114Z,74.01
2018-09-01T03:21:08.246Z,73.82
2018-09-01T03:21:34.373Z,73.91
2018-09-01T03:22:00.508Z,73.91
2018-09-01T03:22:26.635Z,73.82
2018-09-01T03:22:52.797Z,73.91
2018-09-01T03:23:18.953Z,73.91
2018-09-01T03:23:45.089Z,73.91
2018-09-01T03:24:11.247Z,74.2
2018-09-01T03:24:37.379Z,74.11
2018-09-01T03:25:03.509Z,74.3
2018-09-01T03:25:29.647Z,74.01
2018-09-01T03:25:55.781Z,74.11
2018-09-01T03:26:21.914Z,74.3
2018-09-01T03:26:48.054Z,74.4
2018-09-01T03:27:14.203Z,74.45
2018-09-01T03:27:40.370Z,74.45
2018-09-01T03:28:06.528Z,74.4
2018-09-01T03:28:32.666Z,74.16
2018-09-01T03:28:58.815Z,74.36
2018-09-01T03:29:24.973Z,73.97
2018-09-01T03:29:51.135Z,74.16
2018-09-01T03:30:17.296Z,73.97
2018-09-01T03:30:43.423Z,74.65
2018-09-01T03:31:09.557Z,74.74
2018-09-01T03:31:35.731Z,74.84
2018-09-01T03:32:01.905Z,74.74
2018-09-01T03:32:28.059Z,74.93
2018-09-01T03:32:54.212Z,74.84
2018-09-01T03:33:20.367Z,75.02
2018-09-01T03:33:46.506Z,75.02
2018-09-01T03:34:12.661Z,74.45
2018-09-01T03:34:38.812Z,74.45
2018-09-01T03:35:04.943Z,74.45
2018-09-01T03:35:31.100Z,75.31
2018-09-01T03:35:57.270Z,74.65
2018-09-01T03:36:23.400Z,75.02
2018-09-01T03:36:49.561Z,74.55
2018-09-01T03:37:15.692Z,74.55
2018-09-01T03:37:41.830Z,73.97
2018-09-01T03:38:08.013Z,74.16
2018-09-01T03:38:34.135Z,74.26
2018-09-01T03:39:00.266Z,73.97
2018-09-01T03:39:26.439Z,74.07
2018-09-01T03:39:52.574Z,74.07
2018-09-01T03:40:18.756Z,74.65
2018-09-01T03:40:44.881Z,74.84
2018-09-01T03:41:11.014Z,74.84
2018-09-01T03:41:37.153Z,74.74
2018-09-01T03:42:03.288Z,75.22
2018-09-01T03:42:29.422Z,75.12
2018-09-01T03:42:55.572Z,75.22
2018-09-01T03:43:21.710Z,75.02
2018-09-01T03:43:47.864Z,75.02
2018-09-01T03:44:13.996Z,74.74
2018-09-01T03:44:40.179Z,75.12
2018-09-01T03:45:06.312Z,74.84
2018-09-01T03:45:32.447Z,75.41
2018-09-01T03:45:58.600Z,75.41
2018-09-01T03:46:24.736Z,75.02
2018-09-01T03:46:50.866Z,75.12
2018-09-01T03:47:17.001Z,75.12
2018-09-01T03:47:43.183Z,75.41
2018-09-01T03:48:09.342Z,75.51
2018-09-01T03:48:35.482Z,75.79
2018-09-01T03:49:01.630Z,75.89
2018-09-01T03:49:27.771Z,75.7
2018-09-01T03:49:53.920Z,75.79
2018-09-01T03:50:20.060Z,75.89
2018-09-01T03:50:46.224Z,75.79
2018-09-01T03:51:12.383Z,76.14
2018-09-01T03:51:38.512Z,75.98
2018-09-01T03:52:04.644Z,75.98
2018-09-01T03:52:30.798Z,75.6
2018-09-01T03:52:56.927Z,75.98
2018-09-01T03:53:23.109Z,75.98
2018-09-01T03:53:49.244Z,76.08
2018-09-01T03:54:15.376Z,75.51
2018-09-01T03:54:41.502Z,75.41
2018-09-01T03:55:07.638Z,75.7
2018-09-01T03:55:33.796Z,75.7
2018-09-01T03:55:59.950Z,75.89
2018-09-01T03:56:26.080Z,75.98
2018-09-01T03:56:52.216Z,76.18
2018-09-01T03:57:18.345Z,75.6
2018-09-01T03:57:44.507Z,75.89
2018-09-01T03:58:10.660Z,75.51
2018-09-01T03:58:36.793Z,75.98
2018-09-01T03:59:02.948Z,75.98
2018-09-01T03:59:29.129Z,75.7
2018-09-01T03:59:55.258Z,75.98
2018-09-01T04:00:21.418Z,76.18
2018-09-01T04:00:47.556Z,75.79
2018-09-01T04:01:13.708Z,76.18
2018-09-01T04:01:39.840Z,75.98
2018-09-01T04:02:05.979Z,75.89
2018-09-01T04:02:32.113Z,76.04
2018-09-01T04:02:58.246Z,76.33
2018-09-01T04:03:24.380Z,76.04
2018-09-01T04:03:50.508Z,76.18
2018-09-01T04:04:16.643Z,76.33
2018-09-01T04:04:42.776Z,76.14
2018-09-01T04:05:08.903Z,76.37
2018-09-01T04:05:35.042Z,76.33
2018-09-01T04:06:01.172Z,76.23
2018-09-01T04:06:27.354Z,76.14
2018-09-01T04:06:53.521Z,76.37
2018-09-01T04:07:19.678Z,76.18
2018-09-01T04:07:45.807Z,76.33
2018-09-01T04:08:11.944Z,76.33
2018-09-01T04:08:38.074Z,76.33
2018-09-01T04:09:04.231Z,75.85
2018-09-01T04:09:30.370Z,76.23
2018-09-01T04:09:56.499Z,76.37
2018-09-01T04:10:22.650Z,75.89
2018-09-01T04:10:48.783Z,76.18
2018-09-01T04:11:14.916Z,76.37
2018-09-01T04:11:41.056Z,75.98
2018-09-01T04:12:07.209Z,76.08
2018-09-01T04:12:33.341Z,76.56
2018-09-01T04:12:59.500Z,75.89
2018-09-01T04:13:25.661Z,75.85
2018-09-01T04:13:51.797Z,76.33
2018-09-01T04:14:17.922Z,76.23
2018-09-01T04:14:44.052Z,76.14
2018-09-01T04:15:10.215Z,76.08
2018-09-01T04:15:36.351Z,76.23
2018-09-01T04:16:02.488Z,76.04
2018-09-01T04:16:28.614Z,76.04
2018-09-01T04:16:54.752Z,76.14
2018-09-01T04:17:20.877Z,76.18
2018-09-01T04:17:47.077Z,76.33
2018-09-01T04:18:13.233Z,76.27
2018-09-01T04:18:39.362Z,75.89
2018-09-01T04:19:05.501Z,76.14
2018-09-01T04:19:31.635Z,76.23
2018-09-01T04:19:57.772Z,76.04
2018-09-01T04:20:23.906Z,76.04
2018-09-01T04:20:50.110Z,75.98
2018-09-01T04:21:16.259Z,75.95
2018-09-01T04:21:42.394Z,76.04
2018-09-01T04:22:08.545Z,76.14
2018-09-01T04:22:34.678Z,76.18
2018-09-01T04:23:00.805Z,76.23
2018-09-01T04:23:26.942Z,76.04
2018-09-01T04:23:53.077Z,76.23
2018-09-01T04:24:19.206Z,76.14
2018-09-01T04:24:45.337Z,76.23
2018-09-01T04:25:11.494Z,76.33
2018-09-01T04:25:37.653Z,76.33
2018-09-01T04:26:03.783Z,76.33
2018-09-01T04:26:29.915Z,76.42
2018-09-01T04:26:56.045Z,76.52
2018-09-01T04:27:22.201Z,76.23
2018-09-01T04:27:48.351Z,76.14
2018-09-01T04:28:14.483Z,76.23
2018-09-01T04:28:40.614Z,76.33
2018-09-01T04:29:06.753Z,76.04
2018-09-01T04:29:32.882Z,76.42
2018-09-01T04:29:59.012Z,76.71
2018-09-01T04:30:25.199Z,77
2018-09-01T04:30:51.338Z,76.81
2018-09-01T04:31:17.527Z,76.81
2018-09-01T04:31:43.680Z,77
2018-09-01T04:32:09.901Z,76.62
2018-09-01T04:32:35.973Z,76.81
2018-09-01T04:33:02.125Z,77
2018-09-01T04:33:28.255Z,76.81
2018-09-01T04:33:54.391Z,76.9
2018-09-01T04:34:20.548Z,76.52
2018-09-01T04:34:46.677Z,76.52
2018-09-01T04:35:12.838Z,76.81
2018-09-01T04:35:38.975Z,77
2018-09-01T04:36:05.110Z,77.38
2018-09-01T04:36:31.268Z,76.71
2018-09-01T04:36:57.404Z,76.71
2018-09-01T04:37:23.575Z,76.71
2018-09-01T04:37:49.706Z,76.81
2018-09-01T04:38:15.847Z,76.52
2018-09-01T04:38:41.980Z,76.52
2018-09-01T04:39:08.112Z,76.42
2018-09-01T04:39:34.291Z,76.71
2018-09-01T04:40:00.443Z,76.81
2018-09-01T04:40:26.574Z,77.09
2018-09-01T04:40:52.712Z,76.9
2018-09-01T04:41:18.863Z,77
2018-09-01T04:41:44.991Z,76.81
2018-09-01T04:42:11.134Z,76.9
2018-09-01T04:42:37.265Z,77
2018-09-01T04:43:03.400Z,77.19
2018-09-01T04:43:29.553Z,76.9
2018-09-01T04:43:55.686Z,76.81
2018-09-01T04:44:21.842Z,76.71
2018-09-01T04:44:48.020Z,76.52
2018-09-01T04:45:14.178Z,76.9
2018-09-01T04:45:40.311Z,76.9
2018-09-01T04:46:06.440Z,76.81
2018-09-01T04:46:32.622Z,76.71
2018-09-01T04:46:58.742Z,77.19
2018-09-01T04:47:24.917Z,76.81
2018-09-01T04:47:51.056Z,77
2018-09-01T04:48:17.200Z,76.81
2018-09-01T04:48:43.332Z,77.09
2018-09-01T04:49:09.486Z,76.71
2018-09-01T04:49:35.639Z,76.42
2018-09-01T04:50:01.777Z,76.81
2018-09-01T04:50:27.904Z,76.71
2018-09-01T04:50:54.045Z,76.71
2018-09-01T04:51:20.180Z,77.09
2018-09-01T04:51:46.339Z,77.09
2018-09-01T04:52:12.473Z,76.42
2018-09-01T04:52:38.607Z,76.14
2018-09-01T04:53:04.743Z,76.42
2018-09-01T04:53:30.910Z,76.33
2018-09-01T04:53:57.066Z,76.42
2018-09-01T04:54:23.194Z,76.33
2018-09-01T04:54:49.342Z,76.33
2018-09-01T04:55:15.480Z,76.42
2018-09-01T04:55:41.657Z,76.04
2018-09-01T04:56:07.795Z,76.52
2018-09-01T04:56:33.947Z,76.52
2018-09-01T04:57:00.087Z,76.52
2018-09-01T04:57:26.218Z,76.42
2018-09-01T04:57:52.365Z,76.52
2018-09-01T04:58:18.495Z,76.33
2018-09-01T04:58:44.630Z,76.23
2018-09-01T04:59:10.765Z,76.33
2018-09-01T04:59:36.901Z,76.52
2018-09-01T05:00:03.085Z,76.42
2018-09-01T05:00:29.189Z,76.33
2018-09-01T05:00:55.408Z,76.52
2018-09-01T05:01:21.526Z,76.62
2018-09-01T05:01:47.622Z,77.19
2018-09-01T05:02:13.761Z,77.19
2018-09-01T05:02:39.890Z,76.71
2018-09-01T05:03:06.028Z,76.9
2018-09-01T05:03:32.197Z,76.71
2018-09-01T05:03:58.332Z,76.71
2018-09-01T05:04:24.487Z,76.9
2018-09-01T05:04:50.652Z,76.9
2018-09-01T05:05:16.810Z,76.81
2018-09-01T05:05:42.946Z,76.42
2018-09-01T05:06:09.109Z,76.42
2018-09-01T05:06:35.231Z,76.33
2018-09-01T05:07:01.392Z,76.33
2018-09-01T05:07:27.554Z,76.14
2018-09-01T05:07:53.684Z,76.33
2018-09-01T05:08:19.867Z,76.42
2018-09-01T05:08:45.998Z,76.62
2018-09-01T05:09:12.142Z,76.14
2018-09-01T05:09:38.298Z,76.42
2018-09-01T05:10:04.425Z,76.33
2018-09-01T05:10:30.613Z,76.62
2018-09-01T05:10:56.768Z,76.42
2018-09-01T05:11:22.905Z,76.42
2018-09-01T05:11:49.039Z,76.42
2018-09-01T05:12:15.171Z,76.42
2018-09-01T05:12:41.351Z,76.52
2018-09-01T05:13:07.485Z,76.33
2018-09-01T05:13:33.619Z,76.23
2018-09-01T05:13:59.774Z,76.33
2018-09-01T05:14:25.905Z,76.14
2018-09-01T05:14:52.038Z,76.56
2018-09-01T05:15:18.199Z,76.46
2018-09-01T05:15:44.328Z,76.23
2018-09-01T05:16:10.460Z,76.18
2018-09-01T05:16:36.593Z,76.04
2018-09-01T05:17:02.756Z,76.33
2018-09-01T05:17:28.901Z,76.33
2018-09-01T05:17:55.034Z,76.08
2018-09-01T05:18:21.215Z,76.18
2018-09-01T05:18:47.341Z,76.08
2018-09-01T05:19:13.475Z,76.23
2018-09-01T05:19:39.632Z,76.56
2018-09-01T05:20:05.759Z,76.23
2018-09-01T05:20:31.899Z,76.04
2018-09-01T05:20:58.056Z,76.04
2018-09-01T05:21:24.189Z,76.08
2018-09-01T05:21:50.363Z,76.52
2018-09-01T05:22:16.513Z,76.04
2018-09-01T05:22:42.648Z,76.18
2018-09-01T05:23:08.779Z,76.08
2018-09-01T05:23:34.916Z,76.14
2018-09-01T05:24:01.163Z,76.08
2018-09-01T05:24:27.246Z,75.95
2018-09-01T05:24:53.376Z,76.37
2018-09-01T05:25:19.566Z,76.08
2018-09-01T05:25:45.700Z,76.27
2018-09-01T05:26:11.886Z,76.37
2018-09-01T05:26:38.014Z,75.98
2018-09-01T05:27:04.152Z,76.08
2018-09-01T05:27:30.282Z,76.18
2018-09-01T05:27:56.420Z,76.18
2018-09-01T05:28:22.601Z,75.7
2018-09-01T05:28:48.755Z,76.08
2018-09-01T05:29:14.890Z,76.18
2018-09-01T05:29:41.020Z,75.6
2018-09-01T05:30:07.157Z,76.18
2018-09-01T05:30:33.315Z,76.37
2018-09-01T05:30:59.448Z,75.79
2018-09-01T05:31:25.579Z,75.7
2018-09-01T05:31:51.776Z,75.7
2018-09-01T05:32:17.889Z,76.27
2018-09-01T05:32:44.021Z,76.18
2018-09-01T05:33:10.182Z,75.79
2018-09-01T05:33:36.344Z,76.27
2018-09-01T05:34:02.470Z,75.98
2018-09-01T05:34:28.606Z,75.98
2018-09-01T05:34:54.736Z,76.08
2018-09-01T05:35:20.872Z,75.98
2018-09-01T05:35:47.010Z,75.7
2018-09-01T05:36:13.166Z,75.7
2018-09-01T05:36:39.346Z,76.27
2018-09-01T05:37:05.482Z,76.27
2018-09-01T05:37:31.638Z,75.98